createdAt,value
2019-06-15T00:01:15.662Z,56.13
2019-06-15T00:03:45.658Z,56.33
2019-06-15T00:06:16.800Z,56.33
2019-06-15T00:08:47.305Z,56.42
2019-06-15T00:11:17.215Z,56.83
2019-06-15T00:13:47.222Z,57.01
2019-06-15T00:16:17.090Z,57.13
2019-06-15T00:18:47.020Z,57.51
2019-06-15T00:21:17.192Z,57.70
2019-06-15T00:23:47.044Z,57.87
2019-06-15T00:26:16.966Z,57.99
2019-06-15T00:28:48.430Z,58.17
2019-06-15T00:31:18.574Z,58.13
2019-06-15T00:33:49.010Z,58.30
2019-06-15T00:36:18.972Z,58.73
2019-06-15T00:38:48.804Z,58.86
2019-06-15T00:41:18.701Z,58.94
2019-06-15T00:43:49.226Z,58.89
2019-06-15T00:46:19.625Z,58.88
2019-06-15T00:48:49.857Z,58.76
2019-06-15T00:51:19.886Z,58.83
2019-06-15T00:53:52.083Z,58.81
2019-06-15T00:56:22.614Z,58.82
2019-06-15T00:58:53.036Z,58.76
2019-06-15T01:01:23.233Z,58.93
2019-06-15T01:03:54.824Z,58.96
2019-06-15T01:06:24.836Z,59.17
2019-06-15T01:08:54.964Z,59.35
2019-06-15T01:11:27.065Z,60.56
2019-06-15T01:13:58.318Z,60.89
2019-06-15T01:16:29.718Z,61.41
2019-06-15T01:18:59.844Z,61.39
2019-06-15T01:21:30.108Z,61.82
2019-06-15T01:24:00.561Z,61.88
2019-06-15T01:26:30.749Z,61.91
2019-06-15T01:29:01.312Z,61.90
2019-06-15T01:31:31.393Z,61.76
2019-06-15T01:34:05.813Z,61.91
2019-06-15T01:36:36.235Z,61.96
2019-06-15T01:39:06.582Z,61.90
2019-06-15T01:41:38.261Z,61.89
2019-06-15T01:44:08.102Z,61.90
2019-06-15T01:46:37.946Z,61.99
2019-06-15T01:49:07.933Z,61.99
2019-06-15T01:51:40.431Z,61.99
2019-06-15T01:54:13.830Z,61.98
2019-06-15T01:56:45.241Z,62.05
2019-06-15T01:59:15.242Z,62.04
2019-06-15T02:01:46.434Z,62.05
2019-06-15T02:04:17.523Z,62.14
2019-06-15T02:06:47.690Z,62.08
2019-06-15T02:09:17.939Z,62.01
2019-06-15T02:11:49.469Z,61.91
2019-06-15T02:14:20.708Z,61.89
2019-06-15T02:16:50.627Z,61.91
2019-06-15T02:19:20.533Z,61.96
2019-06-15T02:21:50.370Z,61.90
2019-06-15T02:24:20.232Z,61.90
2019-06-15T02:26:50.207Z,62.12
2019-06-15T02:29:23.152Z,62.22
2019-06-15T02:31:53.308Z,62.15
2019-06-15T02:34:23.270Z,62.06
2019-06-15T02:36:56.619Z,62.10
2019-06-15T02:39:26.700Z,62.26
2019-06-15T02:41:57.100Z,62.39
2019-06-15T02:44:27.155Z,62.40
2019-06-15T02:46:58.360Z,62.49
2019-06-15T02:49:28.984Z,62.59
2019-06-15T02:52:00.181Z,62.79
2019-06-15T02:54:30.095Z,62.82
2019-06-15T02:57:01.592Z,62.88
2019-06-15T02:59:33.086Z,63.04
2019-06-15T03:02:04.290Z,63.03
2019-06-15T03:04:35.411Z,63.03
2019-06-15T03:07:05.809Z,63.06
2019-06-15T03:09:36.075Z,63.09
2019-06-15T03:12:06.622Z,63.19
2019-06-15T03:14:36.464Z,63.23
2019-06-15T03:17:06.876Z,63.31
2019-06-15T03:19:37.649Z,63.28
2019-06-15T03:22:07.987Z,63.23
2019-06-15T03:24:38.036Z,63.25
2019-06-15T03:27:08.297Z,63.31
2019-06-15T03:29:38.303Z,63.49
2019-06-15T03:32:08.215Z,63.49
2019-06-15T03:34:38.146Z,63.38
2019-06-15T03:37:08.590Z,62.93
2019-06-15T03:39:39.024Z,62.53
2019-06-15T03:42:09.090Z,62.66
2019-06-15T03:44:39.119Z,62.34
2019-06-15T03:47:08.911Z,62.09
2019-06-15T03:49:39.943Z,61.72
2019-06-15T03:52:09.937Z,61.36
2019-06-15T03:54:39.975Z,61.18
2019-06-15T03:57:09.954Z,61.09
2019-06-15T03:59:40.334Z,60.82
2019-06-15T04:02:10.858Z,60.62
2019-06-15T04:04:41.400Z,60.47
2019-06-15T04:07:14.373Z,60.40
2019-06-15T04:09:44.433Z,60.40
2019-06-15T04:12:15.101Z,60.12
2019-06-15T04:14:46.237Z,59.81
2019-06-15T04:17:16.900Z,59.63
2019-06-15T04:19:47.482Z,59.60
2019-06-15T04:22:17.995Z,59.40
2019-06-15T04:24:48.810Z,59.07
2019-06-15T04:27:19.576Z,58.85
2019-06-15T04:29:49.717Z,58.71
2019-06-15T04:32:19.731Z,58.49
2019-06-15T04:34:49.825Z,58.26
2019-06-15T04:37:19.849Z,58.27
2019-06-15T04:39:49.869Z,58.13
2019-06-15T04:42:20.649Z,57.79
2019-06-15T04:44:53.685Z,57.80
2019-06-15T04:47:23.639Z,57.77
2019-06-15T04:49:53.917Z,57.83
2019-06-15T04:52:23.903Z,57.69
2019-06-15T04:54:54.006Z,57.53
2019-06-15T04:57:25.151Z,57.45
2019-06-15T04:59:55.008Z,57.42
2019-06-15T05:02:27.421Z,57.44
2019-06-15T05:04:57.398Z,57.57
2019-06-15T05:07:27.609Z,58.02
2019-06-15T05:09:59.912Z,58.52
2019-06-15T05:12:29.984Z,58.77
2019-06-15T05:14:59.890Z,58.96
2019-06-15T05:17:30.334Z,59.04
2019-06-15T05:20:01.517Z,59.10
2019-06-15T05:22:31.531Z,59.72
2019-06-15T05:25:02.001Z,60.10
2019-06-15T05:27:32.496Z,60.48
2019-06-15T05:30:02.976Z,60.59
2019-06-15T05:32:33.378Z,60.46
2019-06-15T05:35:06.686Z,60.36
2019-06-15T05:37:37.098Z,60.15
2019-06-15T05:40:08.857Z,60.01
2019-06-15T05:42:39.633Z,59.90
2019-06-15T05:45:11.052Z,59.80
2019-06-15T05:47:41.264Z,59.70
2019-06-15T05:50:11.377Z,59.86
2019-06-15T05:52:41.906Z,59.92
2019-06-15T05:55:12.269Z,60.00
2019-06-15T05:57:42.315Z,60.16
2019-06-15T06:00:13.212Z,60.35
2019-06-15T06:02:44.101Z,60.38
2019-06-15T06:05:15.505Z,60.65
2019-06-15T06:07:45.789Z,60.79
2019-06-15T06:10:17.831Z,60.74
2019-06-15T06:12:48.658Z,60.60
2019-06-15T06:15:19.239Z,60.35
2019-06-15T06:17:49.529Z,60.30
2019-06-15T06:20:20.310Z,60.09
2019-06-15T06:22:50.475Z,60.00
2019-06-15T06:25:23.759Z,59.81
2019-06-15T06:27:54.940Z,59.59
2019-06-15T06:30:30.273Z,59.37
2019-06-15T06:33:00.215Z,59.42
2019-06-15T06:35:30.814Z,59.40
2019-06-15T06:38:00.757Z,59.41
2019-06-15T06:40:31.113Z,59.22
2019-06-15T06:43:01.287Z,59.15
2019-06-15T06:45:31.904Z,58.69
2019-06-15T06:48:02.077Z,58.52
2019-06-15T06:50:32.034Z,58.21
2019-06-15T06:53:02.488Z,57.91
2019-06-15T06:55:33.171Z,57.44
2019-06-15T06:58:03.989Z,57.05
2019-06-15T07:00:34.689Z,56.76
2019-06-15T07:03:05.236Z,56.38
2019-06-15T07:05:35.716Z,55.86
2019-06-15T07:08:06.545Z,55.67
2019-06-15T07:10:37.366Z,55.24
2019-06-15T07:13:07.730Z,54.86
2019-06-15T07:15:39.457Z,54.47
2019-06-15T07:18:10.318Z,53.84
2019-06-15T07:20:40.445Z,52.90
2019-06-15T07:23:11.561Z,51.13
2019-06-15T07:25:43.032Z,50.22
2019-06-15T07:28:13.153Z,49.54
2019-06-15T07:30:43.185Z,48.67
2019-06-15T07:33:14.704Z,48.40
2019-06-15T07:35:47.003Z,47.81
2019-06-15T07:38:17.106Z,47.20
2019-06-15T07:40:47.615Z,45.82
2019-06-15T07:43:17.779Z,44.36
2019-06-15T07:45:48.189Z,43.50
2019-06-15T07:48:18.860Z,42.54
2019-06-15T07:50:48.837Z,42.79
2019-06-15T07:53:20.198Z,42.94
2019-06-15T07:55:50.354Z,42.86
2019-06-15T07:58:24.656Z,42.65
2019-06-15T08:00:55.323Z,42.51
2019-06-15T08:03:25.886Z,42.58
2019-06-15T08:05:56.086Z,42.44
2019-06-15T08:08:29.632Z,42.47
2019-06-15T08:10:59.582Z,42.61
2019-06-15T08:13:29.544Z,42.74
2019-06-15T08:15:59.911Z,42.35
2019-06-15T08:18:30.873Z,42.42
2019-06-15T08:21:01.003Z,42.39
2019-06-15T08:23:31.410Z,42.35
2019-06-15T08:26:01.521Z,42.43
2019-06-15T08:28:39.875Z,42.31
2019-06-15T08:31:03.387Z,42.08
2019-06-15T08:33:33.581Z,42.36
2019-06-15T08:36:04.026Z,42.34
2019-06-15T08:38:34.836Z,42.20
2019-06-15T08:41:05.689Z,41.84
2019-06-15T08:43:36.597Z,41.86
2019-06-15T08:46:08.332Z,41.55
2019-06-15T08:48:38.828Z,41.60
2019-06-15T08:51:11.155Z,41.06
2019-06-15T08:53:41.812Z,40.73
2019-06-15T08:56:14.247Z,41.14
2019-06-15T08:58:55.046Z,40.99
2019-06-15T09:01:18.125Z,41.31
2019-06-15T09:03:49.561Z,41.43
2019-06-15T09:06:21.067Z,41.81
2019-06-15T09:08:51.809Z,41.15
2019-06-15T09:11:26.072Z,40.74
2019-06-15T09:13:56.734Z,40.42
2019-06-15T09:16:30.665Z,40.77
2019-06-15T09:19:03.501Z,40.94
2019-06-15T09:21:34.529Z,40.90
2019-06-15T09:24:05.560Z,40.55
2019-06-15T09:26:42.037Z,40.51
2019-06-15T09:29:16.317Z,40.29
2019-06-15T09:31:46.976Z,40.36
2019-06-15T09:34:19.415Z,40.08
2019-06-15T09:36:54.082Z,40.04
2019-06-15T09:39:24.365Z,40.01
2019-06-15T09:41:57.459Z,40.41
2019-06-15T09:44:33.168Z,39.97
2019-06-15T09:47:05.111Z,39.28
2019-06-15T09:49:41.029Z,39.21
2019-06-15T09:52:16.359Z,38.81
2019-06-15T09:54:49.601Z,38.63
2019-06-15T09:57:21.694Z,38.70
2019-06-15T09:59:51.857Z,38.90
2019-06-15T10:02:27.102Z,38.47
2019-06-15T10:05:02.549Z,38.19
2019-06-15T10:07:33.550Z,38.10
2019-06-15T10:10:07.304Z,37.88
2019-06-15T10:12:40.147Z,37.84
2019-06-15T10:15:11.779Z,38.04
2019-06-15T10:17:43.514Z,38.00
2019-06-15T10:20:16.341Z,38.61
2019-06-15T10:22:47.228Z,39.28
2019-06-15T10:25:18.158Z,38.94
2019-06-15T10:27:50.954Z,38.73
2019-06-15T10:30:23.516Z,38.14
2019-06-15T10:32:53.798Z,38.07
2019-06-15T10:35:24.183Z,38.01
2019-06-15T10:37:59.461Z,38.16
2019-06-15T10:40:30.427Z,39.01
2019-06-15T10:43:12.408Z,39.54
2019-06-15T10:45:43.706Z,39.27
2019-06-15T10:48:18.233Z,39.01
2019-06-15T10:50:48.724Z,39.13
2019-06-15T10:53:21.626Z,39.52
2019-06-15T10:55:52.853Z,39.21
2019-06-15T10:58:23.982Z,39.74
2019-06-15T11:01:05.384Z,39.44
2019-06-15T11:03:37.618Z,40.01
2019-06-15T11:06:10.958Z,40.08
2019-06-15T11:08:41.595Z,39.85
2019-06-15T11:11:36.164Z,39.84
2019-06-15T11:14:32.265Z,39.91
2019-06-15T11:17:08.278Z,39.81
2019-06-15T11:19:39.924Z,39.79
2019-06-15T11:22:25.250Z,40.51
2019-06-15T11:25:06.189Z,40.48
2019-06-15T11:27:40.930Z,39.70
2019-06-15T11:30:14.135Z,39.11
2019-06-15T11:32:44.463Z,39.05
2019-06-15T11:35:17.998Z,39.68
2019-06-15T11:37:48.339Z,39.89
2019-06-15T11:40:23.914Z,40.57
2019-06-15T11:42:55.099Z,40.31
2019-06-15T11:45:26.979Z,40.62
2019-06-15T11:47:58.774Z,39.81
2019-06-15T11:50:33.620Z,39.68
2019-06-15T11:53:05.960Z,39.39
2019-06-15T11:55:39.739Z,39.01
2019-06-15T11:58:13.396Z,38.52
2019-06-15T12:00:47.627Z,37.97
2019-06-15T12:03:25.460Z,37.66
2019-06-15T12:05:58.156Z,37.86
2019-06-15T12:08:34.309Z,38.27
2019-06-15T12:11:08.791Z,38.67
2019-06-15T12:13:42.800Z,38.85
2019-06-15T12:16:15.939Z,38.72
2019-06-15T12:18:46.252Z,39.18
2019-06-15T12:21:17.560Z,39.02
2019-06-15T12:23:52.242Z,39.45
2019-06-15T12:26:23.464Z,39.60
2019-06-15T12:28:57.700Z,39.63
2019-06-15T12:31:29.256Z,40.03
2019-06-15T12:34:00.845Z,40.19
2019-06-15T12:36:31.393Z,40.04
2019-06-15T12:39:03.624Z,40.29
2019-06-15T12:41:34.107Z,40.52
2019-06-15T12:44:06.810Z,39.20
2019-06-15T12:46:37.334Z,39.26
2019-06-15T12:49:12.349Z,38.67
2019-06-15T12:51:43.521Z,38.70
2019-06-15T12:54:13.757Z,38.81
2019-06-15T12:56:44.470Z,38.58
2019-06-15T12:59:15.459Z,37.97
2019-06-15T13:01:46.354Z,37.90
2019-06-15T13:04:27.434Z,37.69
2019-06-15T13:07:02.077Z,37.27
2019-06-15T13:09:33.967Z,37.13
2019-06-15T13:12:05.513Z,36.86
2019-06-15T13:14:37.264Z,36.58
2019-06-15T13:17:07.855Z,36.36
2019-06-15T13:19:38.803Z,36.68
2019-06-15T13:22:11.805Z,37.17
2019-06-15T13:24:46.922Z,37.25
2019-06-15T13:27:19.044Z,37.44
2019-06-15T13:29:53.049Z,37.64
2019-06-15T13:32:30.382Z,37.92
2019-06-15T13:35:00.581Z,38.64
2019-06-15T13:37:41.640Z,38.57
2019-06-15T13:40:04.015Z,39.12
2019-06-15T13:42:35.924Z,39.01
2019-06-15T13:45:10.602Z,39.24
2019-06-15T13:47:41.225Z,39.70
2019-06-15T13:50:12.948Z,39.16
2019-06-15T13:52:43.068Z,38.46
2019-06-15T13:55:17.771Z,38.15
2019-06-15T13:57:49.061Z,37.98
2019-06-15T14:00:21.205Z,37.45
2019-06-15T14:02:54.719Z,37.74
2019-06-15T14:05:25.050Z,36.34
2019-06-15T14:07:56.338Z,36.59
2019-06-15T14:10:31.322Z,36.89
2019-06-15T14:13:01.739Z,37.13
2019-06-15T14:15:35.208Z,37.16
2019-06-15T14:18:06.308Z,37.22
2019-06-15T14:20:37.879Z,37.16
2019-06-15T14:23:10.536Z,37.31
2019-06-15T14:25:40.734Z,37.14
2019-06-15T14:28:11.627Z,37.26
2019-06-15T14:30:48.864Z,37.30
2019-06-15T14:33:19.450Z,36.97
2019-06-15T14:35:52.472Z,37.28
2019-06-15T14:38:25.777Z,37.26
2019-06-15T14:40:56.228Z,37.42
2019-06-15T14:43:29.598Z,37.69
2019-06-15T14:46:03.574Z,38.02
2019-06-15T14:48:33.812Z,38.25
2019-06-15T14:51:04.982Z,37.92
2019-06-15T14:53:36.735Z,37.91
2019-06-15T14:56:07.676Z,37.62
2019-06-15T14:58:37.874Z,37.43
2019-06-15T15:01:09.619Z,37.37
2019-06-15T15:03:40.775Z,37.34
2019-06-15T15:06:11.598Z,38.11
2019-06-15T15:08:43.431Z,38.50
2019-06-15T15:11:17.123Z,38.31
2019-06-15T15:13:47.371Z,37.70
2019-06-15T15:16:18.012Z,37.56
2019-06-15T15:18:52.163Z,37.66
2019-06-15T15:21:23.504Z,37.87
2019-06-15T15:23:57.042Z,37.53
2019-06-15T15:26:28.146Z,36.83
2019-06-15T15:28:58.617Z,37.03
2019-06-15T15:31:31.129Z,37.03
2019-06-15T15:34:07.710Z,37.10
2019-06-15T15:36:36.960Z,37.30
2019-06-15T15:39:13.192Z,37.41
2019-06-15T15:41:46.837Z,37.32
2019-06-15T15:44:18.670Z,37.52
2019-06-15T15:46:49.445Z,38.20
2019-06-15T15:49:23.575Z,38.86
2019-06-15T15:51:56.630Z,38.81
2019-06-15T15:54:27.827Z,38.75
2019-06-15T15:57:07.664Z,38.80
2019-06-15T15:59:38.858Z,38.42
2019-06-15T16:02:10.311Z,38.37
2019-06-15T16:04:41.725Z,38.69
2019-06-15T16:07:18.147Z,38.54
2019-06-15T16:09:49.544Z,38.65
2019-06-15T16:12:23.315Z,38.35
2019-06-15T16:14:56.501Z,37.77
2019-06-15T16:17:27.802Z,37.64
2019-06-15T16:20:00.277Z,36.63
2019-06-15T16:22:36.972Z,35.69
2019-06-15T16:25:08.760Z,35.20
2019-06-15T16:27:38.861Z,34.93
2019-06-15T16:30:13.589Z,34.74
2019-06-15T16:32:44.029Z,35.03
2019-06-15T16:35:16.541Z,35.40
2019-06-15T16:37:51.913Z,35.50
2019-06-15T16:40:26.839Z,35.83
2019-06-15T16:42:57.477Z,36.13
2019-06-15T16:45:28.407Z,36.19
2019-06-15T16:47:59.232Z,36.06
2019-06-15T16:50:30.012Z,35.99
2019-06-15T16:53:01.018Z,36.12
2019-06-15T16:55:32.438Z,35.94
2019-06-15T16:58:03.760Z,35.91
2019-06-15T17:00:36.437Z,35.97
2019-06-15T17:03:21.047Z,36.35
2019-06-15T17:05:46.402Z,36.59
2019-06-15T17:08:17.375Z,36.01
2019-06-15T17:10:48.626Z,36.02
2019-06-15T17:13:19.249Z,36.21
2019-06-15T17:15:49.606Z,35.79
2019-06-15T17:18:19.839Z,35.67
2019-06-15T17:20:52.442Z,35.57
2019-06-15T17:23:27.409Z,35.43
2019-06-15T17:25:58.833Z,35.31
2019-06-15T17:31:27.159Z,34.77
2019-06-15T17:33:58.061Z,34.50
2019-06-15T17:36:31.016Z,34.40
2019-06-15T17:39:06.185Z,34.32
2019-06-15T17:41:37.073Z,34.18
2019-06-15T17:44:08.140Z,34.08
2019-06-15T17:46:46.195Z,34.41
2019-06-15T17:49:17.854Z,35.02
2019-06-15T17:51:49.262Z,35.32
2019-06-15T17:54:20.909Z,36.20
2019-06-15T17:56:52.083Z,36.11
2019-06-15T17:59:22.911Z,36.93
2019-06-15T18:01:54.214Z,37.38
2019-06-15T18:04:24.690Z,37.81
2019-06-15T18:06:56.782Z,38.37
2019-06-15T18:09:28.319Z,38.91
2019-06-15T18:11:59.550Z,39.31
2019-06-15T18:14:29.463Z,39.68
2019-06-15T18:17:04.330Z,39.95
2019-06-15T18:19:37.949Z,40.07
2019-06-15T18:22:09.169Z,40.18
2019-06-15T18:24:40.766Z,40.13
2019-06-15T18:27:17.378Z,40.39
2019-06-15T18:29:49.568Z,40.31
2019-06-15T18:32:20.852Z,40.81
2019-06-15T18:34:55.999Z,41.07
2019-06-15T18:37:26.574Z,41.42
2019-06-15T18:39:58.297Z,41.84
2019-06-15T18:42:29.397Z,42.09
2019-06-15T18:45:01.117Z,42.47
2019-06-15T18:47:32.133Z,42.68
2019-06-15T18:50:02.710Z,42.85
2019-06-15T18:52:33.393Z,43.34
2019-06-15T18:55:05.426Z,43.84
2019-06-15T18:57:37.683Z,44.62
2019-06-15T19:00:09.474Z,45.17
2019-06-15T19:02:43.529Z,45.88
2019-06-15T19:05:28.161Z,45.98
2019-06-15T19:08:12.414Z,46.91
2019-06-15T19:10:46.840Z,47.08
2019-06-15T19:13:17.330Z,47.44
2019-06-15T19:15:48.500Z,47.56
2019-06-15T19:18:19.844Z,47.73
2019-06-15T19:20:50.928Z,47.88
2019-06-15T19:23:28.522Z,47.93
2019-06-15T19:26:02.244Z,48.30
2019-06-15T19:28:37.064Z,48.44
2019-06-15T19:31:09.069Z,48.64
2019-06-15T19:33:40.437Z,48.94
2019-06-15T19:36:15.971Z,49.29
2019-06-15T19:38:49.965Z,49.65
2019-06-15T19:41:22.092Z,49.75
2019-06-15T19:43:57.137Z,49.93
2019-06-15T19:46:30.379Z,50.77
2019-06-15T19:49:03.140Z,50.85
2019-06-15T19:51:36.494Z,50.91
2019-06-15T19:54:15.949Z,51.32
2019-06-15T19:56:46.665Z,51.29
2019-06-15T19:59:20.613Z,51.40
2019-06-15T20:01:52.878Z,52.06
2019-06-15T20:04:26.884Z,52.47
2019-06-15T20:06:57.172Z,52.65
2019-06-15T20:09:28.802Z,52.75
2019-06-15T20:12:01.844Z,53.06
2019-06-15T20:14:36.847Z,53.27
2019-06-15T20:17:13.415Z,53.85
2019-06-15T20:20:08.644Z,53.95
2019-06-15T20:22:43.261Z,54.27
2019-06-15T20:25:26.848Z,54.61
2019-06-15T20:27:57.065Z,54.69
2019-06-15T20:30:29.166Z,54.94
2019-06-15T20:33:02.910Z,55.03
2019-06-15T20:35:35.961Z,55.20
2019-06-15T20:38:08.023Z,55.25
2019-06-15T20:40:43.982Z,55.53
2019-06-15T20:43:36.572Z,55.62
2019-06-15T20:46:12.296Z,55.94
2019-06-15T20:48:47.081Z,56.28
2019-06-15T20:51:24.684Z,56.31
2019-06-15T20:53:58.433Z,56.54
2019-06-15T20:56:38.375Z,56.76
2019-06-15T20:59:09.415Z,57.01
2019-06-15T21:01:39.988Z,57.39
2019-06-15T21:04:12.877Z,57.54
2019-06-15T21:06:46.424Z,57.77
2019-06-15T21:09:19.118Z,57.91
2019-06-15T21:11:53.263Z,57.90
2019-06-15T21:14:28.311Z,57.95
2019-06-15T21:17:00.763Z,58.11
2019-06-15T21:19:36.255Z,58.26
2019-06-15T21:22:10.821Z,58.33
2019-06-15T21:24:54.650Z,58.60
2019-06-15T21:27:30.223Z,58.74
2019-06-15T21:30:00.550Z,58.58
2019-06-15T21:32:31.926Z,58.62
2019-06-15T21:35:02.220Z,58.60
2019-06-15T21:37:32.417Z,58.77
2019-06-15T21:40:02.659Z,58.96
2019-06-15T21:42:36.011Z,59.05
2019-06-15T21:45:08.237Z,59.08
2019-06-15T21:47:46.460Z,59.04
2019-06-15T21:50:17.360Z,59.11
2019-06-15T21:52:49.257Z,59.23
2019-06-15T21:55:19.667Z,59.15
2019-06-15T21:57:50.867Z,59.27
2019-06-15T22:00:29.638Z,59.30
2019-06-15T22:03:03.162Z,59.42
2019-06-15T22:05:36.839Z,59.28
2019-06-15T22:08:06.909Z,59.24
2019-06-15T22:10:37.046Z,59.24
2019-06-15T22:13:09.637Z,59.38
2019-06-15T22:15:41.322Z,59.48
2019-06-15T22:18:27.109Z,59.41
2019-06-15T22:20:57.545Z,59.54
2019-06-15T22:23:28.181Z,59.62
2019-06-15T22:25:59.077Z,59.81
2019-06-15T22:28:29.554Z,60.03
2019-06-15T22:31:00.591Z,60.32
2019-06-15T22:33:31.655Z,60.41
2019-06-15T22:36:01.705Z,60.68
2019-06-15T22:38:32.812Z,60.87
2019-06-15T22:41:02.883Z,60.86
2019-06-15T22:43:36.239Z,61.05
2019-06-15T22:46:07.456Z,61.13
2019-06-15T22:48:38.928Z,61.18
2019-06-15T22:51:09.174Z,61.44
2019-06-15T22:53:39.159Z,61.43
2019-06-15T22:56:09.892Z,61.46
2019-06-15T22:58:40.045Z,61.35
2019-06-15T23:01:10.366Z,61.42
2019-06-15T23:03:40.500Z,61.41
2019-06-15T23:06:12.431Z,61.79
2019-06-15T23:08:42.779Z,61.68
2019-06-15T23:11:13.895Z,61.59
2019-06-15T23:13:46.176Z,61.51
2019-06-15T23:16:15.936Z,61.68
2019-06-15T23:18:46.944Z,61.77
2019-06-15T23:21:17.489Z,62.01
2019-06-15T23:23:47.857Z,62.08
2019-06-15T23:26:18.545Z,62.15
2019-06-15T23:28:48.506Z,62.72
2019-06-15T23:31:19.432Z,62.75
2019-06-15T23:33:49.240Z,62.74
2019-06-15T23:36:26.900Z,62.92
2019-06-15T23:38:57.211Z,63.03
2019-06-15T23:41:27.829Z,63.16
2019-06-15T23:43:57.875Z,63.37
2019-06-15T23:46:28.343Z,63.60
2019-06-15T23:48:59.049Z,63.64
2019-06-15T23:51:29.238Z,63.67
2019-06-15T23:53:59.515Z,63.82
2019-06-15T23:56:29.480Z,63.93
2019-06-15T23:58:59.320Z,64.01
